createdAt,value
2024-03-09T00:01:49.234Z,19.48
2024-03-09T00:03:50.814Z,17.38
2024-03-09T00:05:52.394Z,19.25
2024-03-09T00:07:55.668Z,19.92
2024-03-09T00:09:57.247Z,18.92
2024-03-09T00:11:58.783Z,19.45
2024-03-09T00:14:00.440Z,16.75
2024-03-09T00:16:03.729Z,19.15
2024-03-09T00:18:05.729Z,19.17
2024-03-09T00:20:08.990Z,17.88
2024-03-09T00:22:10.570Z,16.38
2024-03-09T00:24:12.098Z,20.23
2024-03-09T00:26:13.903Z,18.65
2024-03-09T00:28:15.530Z,18.42
2024-03-09T00:30:17.255Z,21.80
2024-03-09T00:32:20.207Z,18.95
2024-03-09T00:34:21.747Z,17.23
2024-03-09T00:36:23.289Z,19.48
2024-03-09T00:38:24.865Z,18.83
2024-03-09T00:40:27.739Z,16.73
2024-03-09T00:42:29.357Z,19.13
2024-03-09T00:44:30.956Z,14.45
2024-03-09T00:46:32.562Z,17.17
2024-03-09T00:48:35.443Z,19.10
2024-03-09T00:50:36.977Z,15.93
2024-03-09T00:52:39.077Z,18.33
2024-03-09T00:54:40.669Z,15.68
2024-03-09T00:56:42.238Z,19.55
2024-03-09T00:58:43.832Z,17.95
2024-03-09T01:00:45.390Z,16.27
2024-03-09T01:02:49.214Z,16.73
2024-03-09T01:04:52.228Z,17.50
2024-03-09T01:06:53.842Z,18.50
2024-03-09T01:08:55.383Z,14.48
2024-03-09T01:10:57.398Z,14.90
2024-03-09T01:12:59.017Z,18.83
2024-03-09T01:15:00.687Z,16.83
2024-03-09T01:17:02.285Z,16.45
2024-03-09T01:19:03.850Z,18.83
2024-03-09T01:21:06.923Z,15.63
2024-03-09T01:23:08.537Z,16.90
2024-03-09T01:25:10.355Z,19.42
2024-03-09T01:27:11.893Z,18.70
2024-03-09T01:29:13.627Z,17.88
2024-03-09T01:31:15.274Z,18.45
2024-03-09T01:33:16.894Z,17.67
2024-03-09T01:35:18.637Z,19.80
2024-03-09T01:37:21.606Z,14.00
2024-03-09T01:39:23.367Z,18.20
2024-03-09T01:41:25.048Z,18.27
2024-03-09T01:43:26.715Z,17.67
2024-03-09T01:45:28.298Z,19.52
2024-03-09T01:47:29.886Z,19.77
2024-03-09T01:49:31.966Z,15.63
2024-03-09T01:51:33.920Z,17.30
2024-03-09T01:53:38.958Z,21.08
2024-03-09T01:55:41.033Z,15.55
2024-03-09T01:57:42.661Z,16.83
2024-03-09T01:59:48.194Z,19.05
2024-03-09T02:01:49.890Z,16.25
2024-03-09T02:03:55.858Z,17.75
2024-03-09T02:05:57.515Z,16.38
2024-03-09T02:07:59.113Z,17.98
2024-03-09T02:10:02.168Z,19.55
2024-03-09T02:12:04.931Z,18.80
2024-03-09T02:14:06.647Z,15.13
2024-03-09T02:16:08.339Z,17.00
2024-03-09T02:18:09.934Z,17.52
2024-03-09T02:20:12.381Z,19.80
2024-03-09T02:22:16.369Z,15.90
2024-03-09T02:24:21.740Z,17.70
2024-03-09T02:26:25.096Z,15.85
2024-03-09T02:28:26.685Z,17.58
2024-03-09T02:30:28.313Z,19.08
2024-03-09T02:32:30.822Z,16.35
2024-03-09T02:34:32.543Z,14.02
2024-03-09T02:36:35.175Z,17.08
2024-03-09T02:38:36.743Z,20.00
2024-03-09T02:40:38.460Z,16.38
2024-03-09T02:42:41.978Z,13.80
2024-03-09T02:44:43.581Z,15.05
2024-03-09T02:46:45.157Z,15.95
2024-03-09T02:48:47.213Z,16.98
2024-03-09T02:50:48.797Z,17.48
2024-03-09T02:52:50.343Z,18.40
2024-03-09T02:54:51.914Z,17.27
2024-03-09T02:56:53.516Z,21.45
2024-03-09T02:58:56.554Z,14.68
2024-03-09T03:00:58.214Z,16.85
2024-03-09T03:02:59.774Z,14.43
2024-03-09T03:05:01.384Z,13.63
2024-03-09T03:07:03.125Z,16.60
2024-03-09T03:09:05.619Z,16.50
2024-03-09T03:11:07.282Z,14.75
2024-03-09T03:13:09.061Z,15.60
2024-03-09T03:15:12.317Z,16.63
2024-03-09T03:17:13.966Z,18.90
2024-03-09T03:19:15.601Z,19.60
2024-03-09T03:21:17.278Z,19.35
2024-03-09T03:23:18.870Z,17.45
2024-03-09T03:25:20.402Z,13.70
2024-03-09T03:27:21.977Z,13.73
2024-03-09T03:29:23.523Z,15.80
2024-03-09T03:31:26.618Z,16.50
2024-03-09T03:33:28.150Z,18.20
2024-03-09T03:35:29.686Z,14.57
2024-03-09T03:37:31.307Z,17.00
2024-03-09T03:39:32.864Z,14.10
2024-03-09T03:41:34.413Z,16.27
2024-03-09T03:43:36.509Z,16.02
2024-03-09T03:45:38.681Z,15.13
2024-03-09T03:47:41.711Z,18.83
2024-03-09T03:49:43.295Z,17.77
2024-03-09T03:51:44.845Z,13.90
2024-03-09T03:53:46.653Z,15.60
2024-03-09T03:55:48.536Z,15.23
2024-03-09T03:57:52.025Z,18.40
2024-03-09T03:59:53.921Z,17.25
2024-03-09T04:01:55.596Z,14.75
2024-03-09T04:03:58.581Z,15.68
2024-03-09T04:06:00.261Z,14.38
2024-03-09T04:08:01.856Z,13.15
2024-03-09T04:10:03.885Z,12.95
2024-03-09T04:12:05.759Z,14.55
2024-03-09T04:14:07.714Z,14.43
2024-03-09T04:16:09.356Z,11.85
2024-03-09T04:18:11.116Z,11.77
2024-03-09T04:20:14.171Z,10.48
2024-03-09T04:22:15.818Z,12.05
2024-03-09T04:24:17.397Z,12.52
2024-03-09T04:26:18.989Z,11.90
2024-03-09T04:28:20.808Z,11.35
2024-03-09T04:30:22.404Z,12.35
2024-03-09T04:32:24.072Z,14.00
2024-03-09T04:34:25.639Z,16.00
2024-03-09T04:36:28.582Z,14.10
2024-03-09T04:38:30.152Z,13.05
2024-03-09T04:40:31.766Z,12.65
2024-03-09T04:42:33.357Z,12.65
2024-03-09T04:44:34.983Z,14.38
2024-03-09T04:46:36.672Z,14.35
2024-03-09T04:48:39.328Z,13.80
2024-03-09T04:50:40.930Z,14.55
2024-03-09T04:52:43.942Z,14.40
2024-03-09T04:54:45.589Z,15.25
2024-03-09T04:56:47.128Z,13.23
2024-03-09T04:58:48.768Z,14.57
2024-03-09T05:00:50.491Z,14.55
2024-03-09T05:02:52.323Z,15.73
2024-03-09T05:04:54.435Z,19.67
2024-03-09T05:06:56.012Z,16.35
2024-03-09T05:08:59.031Z,15.85
2024-03-09T05:11:00.676Z,17.85
2024-03-09T05:13:02.400Z,18.33
2024-03-09T05:15:04.828Z,15.65
2024-03-09T05:17:06.420Z,16.08
2024-03-09T05:19:08.030Z,16.85
2024-03-09T05:21:09.630Z,15.32
2024-03-09T05:23:14.358Z,14.77
2024-03-09T05:25:19.354Z,16.58
2024-03-09T05:27:20.908Z,19.95
2024-03-09T05:29:22.545Z,16.52
2024-03-09T05:31:25.532Z,17.92
2024-03-09T05:33:27.069Z,19.75
2024-03-09T05:35:30.326Z,17.38
2024-03-09T05:37:31.900Z,19.88
2024-03-09T05:39:33.529Z,19.40
2024-03-09T05:41:36.418Z,16.73
2024-03-09T05:43:38.020Z,17.95
2024-03-09T05:45:39.675Z,15.95
2024-03-09T05:47:41.209Z,17.60
2024-03-09T05:49:44.721Z,17.63
2024-03-09T05:51:46.342Z,18.13
2024-03-09T05:53:47.876Z,17.25
2024-03-09T05:55:49.560Z,16.95
2024-03-09T05:57:54.073Z,17.42
2024-03-09T05:59:55.614Z,17.08
2024-03-09T06:01:57.188Z,17.73
2024-03-09T06:03:58.714Z,18.13
2024-03-09T06:06:00.284Z,16.95
2024-03-09T06:08:01.884Z,15.52
2024-03-09T06:10:03.954Z,18.00
2024-03-09T06:12:06.256Z,16.92
2024-03-09T06:14:09.209Z,18.55
2024-03-09T06:16:10.778Z,16.85
2024-03-09T06:18:12.674Z,19.15
2024-03-09T06:20:16.267Z,15.60
2024-03-09T06:22:17.968Z,19.10
2024-03-09T06:24:19.494Z,20.40
2024-03-09T06:26:21.059Z,21.27
2024-03-09T06:28:22.660Z,19.73
2024-03-09T06:30:29.726Z,16.75
2024-03-09T06:32:33.564Z,18.17
2024-03-09T06:34:35.110Z,18.65
2024-03-09T06:36:36.699Z,17.65
2024-03-09T06:38:38.221Z,17.60
2024-03-09T06:40:41.195Z,18.20
2024-03-09T06:42:42.774Z,17.52
2024-03-09T06:44:44.324Z,14.63
2024-03-09T06:46:47.476Z,17.77
2024-03-09T06:48:49.031Z,19.00
2024-03-09T06:50:50.641Z,17.50
2024-03-09T06:52:52.233Z,16.63
2024-03-09T06:54:53.830Z,18.33
2024-03-09T06:56:55.438Z,18.33
2024-03-09T06:58:58.772Z,21.38
2024-03-09T07:01:00.381Z,16.77
2024-03-09T07:03:03.513Z,16.92
2024-03-09T07:05:05.850Z,21.10
2024-03-09T07:07:07.397Z,16.95
2024-03-09T07:09:08.969Z,17.08
2024-03-09T07:11:11.293Z,17.02
2024-03-09T07:13:12.932Z,17.00
2024-03-09T07:15:14.733Z,15.82
2024-03-09T07:17:16.308Z,17.88
2024-03-09T07:19:19.356Z,16.95
2024-03-09T07:21:20.962Z,15.93
2024-03-09T07:23:22.571Z,17.33
2024-03-09T07:25:26.966Z,14.88
2024-03-09T07:27:28.796Z,17.83
2024-03-09T07:29:30.323Z,17.10
2024-03-09T07:31:32.034Z,18.67
2024-03-09T07:33:33.650Z,16.95
2024-03-09T07:35:36.931Z,19.30
2024-03-09T07:37:38.476Z,17.60
2024-03-09T07:39:40.118Z,15.60
2024-03-09T07:41:41.750Z,17.48
2024-03-09T07:43:43.369Z,16.98
2024-03-09T07:45:44.938Z,17.63
2024-03-09T07:47:47.937Z,18.83
2024-03-09T07:49:49.592Z,17.60
2024-03-09T07:51:52.531Z,17.45
2024-03-09T07:53:54.135Z,21.77
2024-03-09T07:55:55.763Z,18.13
2024-03-09T07:58:08.935Z,17.92
2024-03-09T08:00:20.044Z,18.20
2024-03-09T08:02:21.721Z,17.05
2024-03-09T08:04:23.305Z,16.38
2024-03-09T08:06:24.842Z,17.10
2024-03-09T08:08:27.761Z,16.67
2024-03-09T08:10:29.708Z,16.85
2024-03-09T08:12:31.300Z,15.82
2024-03-09T08:14:32.849Z,15.88
2024-03-09T08:16:36.784Z,14.68
2024-03-09T08:18:38.329Z,15.18
2024-03-09T08:20:39.900Z,16.42
2024-03-09T08:22:42.060Z,15.77
2024-03-09T08:24:45.009Z,16.27
2024-03-09T08:26:49.421Z,15.23
2024-03-09T08:28:51.036Z,16.33
2024-03-09T08:30:55.080Z,14.85
2024-03-09T08:32:58.351Z,12.68
2024-03-09T08:35:00.034Z,13.85
2024-03-09T08:37:04.239Z,14.05
2024-03-09T08:39:05.785Z,17.08
2024-03-09T08:41:08.771Z,19.50
2024-03-09T08:43:10.344Z,14.52
2024-03-09T08:45:11.977Z,13.65
2024-03-09T08:47:13.594Z,12.80
2024-03-09T08:49:15.219Z,11.82
2024-03-09T08:51:16.804Z,13.48
2024-03-09T08:53:18.962Z,13.15
2024-03-09T08:55:20.809Z,14.65
2024-03-09T08:57:23.734Z,15.23
2024-03-09T08:59:25.304Z,15.52
2024-03-09T09:01:26.925Z,13.77
2024-03-09T09:03:28.646Z,13.57
2024-03-09T09:05:30.667Z,10.90
2024-03-09T09:07:32.346Z,14.32
2024-03-09T09:09:33.896Z,13.02
2024-03-09T09:11:35.512Z,13.27
2024-03-09T09:13:38.484Z,11.20
2024-03-09T09:15:40.044Z,12.48
2024-03-09T09:17:41.705Z,13.88
2024-03-09T09:19:43.314Z,10.10
2024-03-09T09:21:44.880Z,11.35
2024-03-09T09:23:46.460Z,11.18
2024-03-09T09:25:48.072Z,9.23
2024-03-09T09:27:49.699Z,10.20
2024-03-09T09:29:52.639Z,11.65
2024-03-09T09:31:54.223Z,11.18
2024-03-09T09:33:55.895Z,9.55
2024-03-09T09:35:57.475Z,11.48
2024-03-09T09:37:59.789Z,9.50
2024-03-09T09:40:01.893Z,10.77
2024-03-09T09:42:03.613Z,8.98
2024-03-09T09:44:06.451Z,9.82
2024-03-09T09:46:09.464Z,10.82
2024-03-09T09:48:11.137Z,8.25
2024-03-09T09:50:14.708Z,11.40
2024-03-09T09:52:16.741Z,9.20
2024-03-09T09:54:21.105Z,9.65
2024-03-09T09:56:22.710Z,10.50
2024-03-09T09:58:25.628Z,7.85
2024-03-09T10:00:27.232Z,9.15
2024-03-09T10:02:30.945Z,8.63
2024-03-09T10:04:36.442Z,8.35
2024-03-09T10:06:38.041Z,8.75
2024-03-09T10:08:47.877Z,11.43
2024-03-09T10:10:49.943Z,8.32
2024-03-09T10:13:04.471Z,8.30
2024-03-09T10:15:12.594Z,7.68
2024-03-09T10:17:14.269Z,8.35
2024-03-09T10:19:18.185Z,7.72
2024-03-09T10:21:26.709Z,8.63
2024-03-09T10:23:28.314Z,9.75
2024-03-09T10:25:30.049Z,9.90
2024-03-09T10:27:32.409Z,8.98
2024-03-09T10:29:34.918Z,9.07
2024-03-09T10:31:39.133Z,8.70
2024-03-09T10:33:40.824Z,7.95
2024-03-09T10:35:44.999Z,7.07
2024-03-09T10:37:48.637Z,8.50
2024-03-09T10:39:50.222Z,6.88
2024-03-09T10:41:52.749Z,7.15
2024-03-09T10:43:57.145Z,6.20
2024-03-09T10:46:01.603Z,7.97
2024-03-09T10:48:04.934Z,5.88
2024-03-09T10:50:12.877Z,4.95
2024-03-09T10:52:20.255Z,6.50
2024-03-09T10:54:30.257Z,6.43
2024-03-09T10:58:34.609Z,6.80
2024-03-09T11:00:36.258Z,6.78
2024-03-09T11:02:38.426Z,5.40
2024-03-09T11:04:41.664Z,5.57
2024-03-09T11:06:43.974Z,6.13
2024-03-09T11:08:48.527Z,6.47
2024-03-09T11:10:50.579Z,7.97
2024-03-09T11:12:53.439Z,10.93
2024-03-09T11:14:57.514Z,6.38
2024-03-09T11:16:59.984Z,6.38
2024-03-09T11:19:02.894Z,5.88
2024-03-09T11:21:04.786Z,6.78
2024-03-09T11:23:06.399Z,7.35
2024-03-09T11:25:10.094Z,6.82
2024-03-09T11:27:11.698Z,8.02
2024-03-09T11:29:13.440Z,5.80
2024-03-09T11:31:15.906Z,7.95
2024-03-09T11:33:17.618Z,8.32
2024-03-09T11:35:29.998Z,6.40
2024-03-09T11:37:44.925Z,7.15
2024-03-09T11:39:47.379Z,9.20
2024-03-09T11:41:52.008Z,7.40
2024-03-09T11:43:53.676Z,8.98
2024-03-09T11:45:55.382Z,23.60
2024-03-09T11:47:58.397Z,12.70
2024-03-09T11:50:02.692Z,11.80
2024-03-09T11:52:06.167Z,13.30
2024-03-09T11:54:11.468Z,11.13
2024-03-09T11:56:13.145Z,7.68
2024-03-09T11:58:16.470Z,13.10
2024-03-09T12:00:18.924Z,8.80
2024-03-09T12:02:20.580Z,7.50
2024-03-09T12:04:22.203Z,7.78
2024-03-09T12:06:24.116Z,10.30
2024-03-09T12:08:26.005Z,7.90
2024-03-09T12:10:27.680Z,7.15
2024-03-09T12:12:29.278Z,7.20
2024-03-09T12:14:32.272Z,10.07
2024-03-09T12:16:34.804Z,8.18
2024-03-09T12:18:36.433Z,7.35
2024-03-09T12:20:38.626Z,10.48
2024-03-09T12:22:40.401Z,8.20
2024-03-09T12:24:42.426Z,8.00
2024-03-09T12:26:44.279Z,7.43
2024-03-09T12:28:45.989Z,8.30
2024-03-09T12:30:50.808Z,7.38
2024-03-09T12:32:52.522Z,8.68
2024-03-09T12:34:54.317Z,7.35
2024-03-09T12:36:55.952Z,8.68
2024-03-09T12:39:09.084Z,7.68
2024-03-09T12:41:25.286Z,7.13
2024-03-09T12:43:29.262Z,8.50
2024-03-09T12:45:30.807Z,5.60
2024-03-09T12:47:33.875Z,7.30
2024-03-09T12:49:35.577Z,8.27
2024-03-09T12:51:37.256Z,7.10
2024-03-09T12:53:39.093Z,7.07
2024-03-09T12:55:40.744Z,5.45
2024-03-09T12:57:43.141Z,12.45
2024-03-09T12:59:44.899Z,7.43
2024-03-09T13:01:46.524Z,6.95
2024-03-09T13:03:57.704Z,8.82
2024-03-09T13:06:01.066Z,6.60
2024-03-09T13:08:02.991Z,6.65
2024-03-09T13:10:07.450Z,7.60
2024-03-09T13:12:10.596Z,7.68
2024-03-09T13:14:12.378Z,5.97
2024-03-09T13:16:14.037Z,7.47
2024-03-09T13:18:15.709Z,5.55
2024-03-09T13:20:19.418Z,6.53
2024-03-09T13:22:21.111Z,7.82
2024-03-09T13:24:22.997Z,6.55
2024-03-09T13:26:25.645Z,7.43
2024-03-09T13:28:27.282Z,6.13
2024-03-09T13:30:29.002Z,5.03
2024-03-09T13:32:30.591Z,5.68
2024-03-09T13:34:32.813Z,6.70
2024-03-09T13:36:35.922Z,5.63
2024-03-09T13:38:37.494Z,6.93
2024-03-09T13:40:39.214Z,5.10
2024-03-09T13:42:41.647Z,5.72
2024-03-09T13:44:43.260Z,4.95
2024-03-09T13:46:45.414Z,4.93
2024-03-09T13:48:47.163Z,4.93
2024-03-09T13:50:48.760Z,4.93
2024-03-09T13:52:51.764Z,4.65
2024-03-09T13:54:53.448Z,3.55
2024-03-09T13:56:55.120Z,5.35
2024-03-09T13:58:56.765Z,3.85
2024-03-09T14:00:58.433Z,4.03
2024-03-09T14:03:00.191Z,5.00
2024-03-09T14:05:01.894Z,3.53
2024-03-09T14:07:09.008Z,3.78
2024-03-09T14:09:12.785Z,4.05
2024-03-09T14:11:14.456Z,4.35
2024-03-09T14:13:16.251Z,4.13
2024-03-09T14:15:17.812Z,4.57
2024-03-09T14:17:19.508Z,5.78
2024-03-09T14:19:21.156Z,4.15
2024-03-09T14:21:22.765Z,4.35
2024-03-09T14:23:24.603Z,4.80
2024-03-09T14:25:27.689Z,4.07
2024-03-09T14:27:29.333Z,5.80
2024-03-09T14:29:31.019Z,4.07
2024-03-09T14:31:32.697Z,5.45
2024-03-09T14:33:34.296Z,3.65
2024-03-09T14:35:36.116Z,4.03
2024-03-09T14:37:37.743Z,4.32
2024-03-09T14:39:39.907Z,5.07
2024-03-09T14:41:43.038Z,3.97
2024-03-09T14:43:44.628Z,4.40
2024-03-09T14:45:46.190Z,3.83
2024-03-09T14:47:48.324Z,3.72
2024-03-09T14:49:50.076Z,3.70
2024-03-09T14:51:51.698Z,3.65
2024-03-09T14:53:54.562Z,4.43
2024-03-09T14:55:56.598Z,4.45
2024-03-09T14:58:00.327Z,3.40
2024-03-09T15:02:04.951Z,4.70
2024-03-09T15:04:06.669Z,4.43
2024-03-09T15:06:08.530Z,3.22
2024-03-09T15:08:10.362Z,3.70
2024-03-09T15:10:12.262Z,5.85
2024-03-09T15:12:13.891Z,3.97
2024-03-09T15:14:16.959Z,4.90
2024-03-09T15:16:18.858Z,3.22
2024-03-09T15:18:20.726Z,3.65
2024-03-09T15:20:24.020Z,4.43
2024-03-09T15:22:26.860Z,3.78
2024-03-09T15:24:28.490Z,3.88
2024-03-09T15:26:31.019Z,4.80
2024-03-09T15:28:33.048Z,4.40
2024-03-09T15:30:36.116Z,4.28
2024-03-09T15:32:37.764Z,5.82
2024-03-09T15:34:39.430Z,7.20
2024-03-09T15:36:41.030Z,6.55
2024-03-09T15:38:43.608Z,7.10
2024-03-09T15:40:45.523Z,7.53
2024-03-09T15:42:47.582Z,6.68
2024-03-09T15:44:49.201Z,7.30
2024-03-09T15:46:52.182Z,5.50
2024-03-09T15:48:53.843Z,4.95
2024-03-09T15:50:55.453Z,7.32
2024-03-09T15:52:57.126Z,6.75
2024-03-09T15:54:58.873Z,6.38
2024-03-09T15:57:00.512Z,5.40
2024-03-09T15:59:02.255Z,6.35
2024-03-09T16:01:04.346Z,7.43
2024-03-09T16:03:07.367Z,6.57
2024-03-09T16:05:09.729Z,7.00
2024-03-09T16:07:11.499Z,6.25
2024-03-09T16:09:13.707Z,6.40
2024-03-09T16:11:15.688Z,6.93
2024-03-09T16:13:17.428Z,5.85
2024-03-09T16:15:19.216Z,6.80
2024-03-09T16:17:20.829Z,6.80
2024-03-09T16:19:23.820Z,5.57
2024-03-09T16:21:25.446Z,5.13
2024-03-09T16:23:27.062Z,6.60
2024-03-09T16:25:33.166Z,7.18
2024-03-09T16:27:35.262Z,6.10
2024-03-09T16:29:36.936Z,6.72
2024-03-09T16:31:38.528Z,8.52
2024-03-09T16:33:40.174Z,6.95
2024-03-09T16:35:44.437Z,6.90
2024-03-09T16:37:45.999Z,6.68
2024-03-09T16:39:47.577Z,6.72
2024-03-09T16:41:49.109Z,6.93
2024-03-09T16:43:50.688Z,8.10
2024-03-09T16:45:52.231Z,7.57
2024-03-09T16:47:54.019Z,7.03
2024-03-09T16:49:55.566Z,8.82
2024-03-09T16:51:58.564Z,8.07
2024-03-09T16:54:00.157Z,7.78
2024-03-09T16:56:01.884Z,8.38
2024-03-09T16:58:03.771Z,7.75
2024-03-09T17:00:06.662Z,8.13
2024-03-09T17:02:08.268Z,10.13
2024-03-09T17:04:09.902Z,8.20
2024-03-09T17:06:11.499Z,8.75
2024-03-09T17:08:14.585Z,10.68
2024-03-09T17:10:16.644Z,8.57
2024-03-09T17:12:18.286Z,8.85
2024-03-09T17:14:20.006Z,9.38
2024-03-09T17:16:21.669Z,9.05
2024-03-09T17:18:23.306Z,8.77
2024-03-09T17:20:28.329Z,9.30
2024-03-09T17:22:31.424Z,9.93
2024-03-09T17:24:34.317Z,10.32
2024-03-09T17:26:36.078Z,9.80
2024-03-09T17:28:37.643Z,9.23
2024-03-09T17:30:39.205Z,9.85
2024-03-09T17:32:45.545Z,10.70
2024-03-09T17:34:47.974Z,9.73
2024-03-09T17:36:49.565Z,10.73
2024-03-09T17:38:51.140Z,10.88
2024-03-09T17:40:54.066Z,9.95
2024-03-09T17:42:55.874Z,10.43
2024-03-09T17:44:57.612Z,9.63
2024-03-09T17:46:59.270Z,10.73
2024-03-09T17:49:00.899Z,9.23
2024-03-09T17:51:02.487Z,10.45
2024-03-09T17:53:04.495Z,9.80
2024-03-09T17:55:07.841Z,10.15
2024-03-09T17:57:10.773Z,10.63
2024-03-09T17:59:12.543Z,9.73
2024-03-09T18:01:14.261Z,8.82
2024-03-09T18:03:15.920Z,11.05
2024-03-09T18:05:17.759Z,10.93
2024-03-09T18:07:19.341Z,10.57
2024-03-09T18:09:20.966Z,12.75
2024-03-09T18:11:22.699Z,12.02
2024-03-09T18:13:25.707Z,11.68
2024-03-09T18:15:27.575Z,10.10
2024-03-09T18:17:29.211Z,11.88
2024-03-09T18:19:30.864Z,13.05
2024-03-09T18:21:32.415Z,10.45
2024-03-09T18:23:34.115Z,13.45
2024-03-09T18:25:36.580Z,9.52
2024-03-09T18:27:38.126Z,12.55
2024-03-09T18:29:41.034Z,10.27
2024-03-09T18:31:44.002Z,15.73
2024-03-09T18:33:46.728Z,10.77
2024-03-09T18:35:48.754Z,10.30
2024-03-09T18:37:50.999Z,11.85
2024-03-09T18:39:52.591Z,11.43
2024-03-09T18:41:54.144Z,10.98
2024-03-09T18:43:55.788Z,15.50
2024-03-09T18:45:58.898Z,13.63
2024-03-09T18:48:00.536Z,11.73
2024-03-09T18:50:02.304Z,10.23
2024-03-09T18:52:04.430Z,12.60
2024-03-09T18:54:06.045Z,11.40
2024-03-09T18:56:07.744Z,10.60
2024-03-09T18:58:09.569Z,11.60
2024-03-09T19:00:13.875Z,9.88
2024-03-09T19:02:16.808Z,11.10
2024-03-09T19:04:18.493Z,12.68
2024-03-09T19:06:20.036Z,13.20
2024-03-09T19:08:21.632Z,11.02
2024-03-09T19:10:23.730Z,12.38
2024-03-09T19:12:25.314Z,10.40
2024-03-09T19:14:26.977Z,12.52
2024-03-09T19:16:28.536Z,12.85
2024-03-09T19:18:31.496Z,12.60
2024-03-09T19:20:33.083Z,11.20
2024-03-09T19:22:34.640Z,11.15
2024-03-09T19:24:36.225Z,11.68
2024-03-09T19:26:43.310Z,9.95
2024-03-09T19:28:44.941Z,11.13
2024-03-09T19:30:46.573Z,9.40
2024-03-09T19:32:49.278Z,9.55
2024-03-09T19:34:52.240Z,11.07
2024-03-09T19:36:53.804Z,12.13
2024-03-09T19:38:55.461Z,11.50
2024-03-09T19:40:57.003Z,9.57
2024-03-09T19:42:59.482Z,8.25
2024-03-09T19:45:01.205Z,10.70
2024-03-09T19:47:02.886Z,9.60
2024-03-09T19:49:04.482Z,8.35
2024-03-09T19:51:07.368Z,9.68
2024-03-09T19:53:08.952Z,8.27
2024-03-09T19:55:10.718Z,8.05
2024-03-09T19:57:12.445Z,9.70
2024-03-09T19:59:14.172Z,9.40
2024-03-09T20:01:15.807Z,9.15
2024-03-09T20:03:17.491Z,10.60
2024-03-09T20:05:19.364Z,8.05
2024-03-09T20:07:22.309Z,8.00
2024-03-09T20:09:23.949Z,8.50
2024-03-09T20:11:25.663Z,8.75
2024-03-09T20:13:27.302Z,8.77
2024-03-09T20:15:29.337Z,8.00
2024-03-09T20:17:31.297Z,8.55
2024-03-09T20:19:32.980Z,10.20
2024-03-09T20:21:34.557Z,8.50
2024-03-09T20:23:37.531Z,11.20
2024-03-09T20:25:39.111Z,8.82
2024-03-09T20:27:41.360Z,9.23
2024-03-09T20:29:42.933Z,9.40
2024-03-09T20:31:44.470Z,8.63
2024-03-09T20:33:46.072Z,10.02
2024-03-09T20:35:47.728Z,9.52
2024-03-09T20:37:49.727Z,9.82
2024-03-09T20:39:52.783Z,8.80
2024-03-09T20:41:54.359Z,10.20
2024-03-09T20:43:55.897Z,7.65
2024-03-09T20:45:57.506Z,9.40
2024-03-09T20:47:59.108Z,8.98
2024-03-09T20:50:00.779Z,8.93
2024-03-09T20:52:02.568Z,9.15
2024-03-09T20:54:04.416Z,8.90
2024-03-09T20:56:07.706Z,9.20
2024-03-09T20:58:09.294Z,10.27
2024-03-09T21:00:12.181Z,7.22
2024-03-09T21:02:13.790Z,7.70
2024-03-09T21:04:15.385Z,7.03
2024-03-09T21:06:17.059Z,8.98
2024-03-09T21:08:18.734Z,9.95
2024-03-09T21:10:20.327Z,8.25
2024-03-09T21:12:23.244Z,8.80
2024-03-09T21:14:24.862Z,8.13
2024-03-09T21:16:26.448Z,8.50
2024-03-09T21:18:28.228Z,7.18
2024-03-09T21:20:30.002Z,7.53
2024-03-09T21:22:31.611Z,7.40
2024-03-09T21:24:33.457Z,6.72
2024-03-09T21:26:35.080Z,8.40
2024-03-09T21:28:38.030Z,7.47
2024-03-09T21:30:39.776Z,6.45
2024-03-09T21:32:42.325Z,8.32
2024-03-09T21:34:43.974Z,7.85
2024-03-09T21:36:45.635Z,8.38
2024-03-09T21:38:47.377Z,7.00
2024-03-09T21:40:48.983Z,6.00
2024-03-09T21:42:51.308Z,6.55
2024-03-09T21:44:54.235Z,8.32
2024-03-09T21:46:55.834Z,6.68
2024-03-09T21:48:57.496Z,6.63
2024-03-09T21:51:07.217Z,7.68
2024-03-09T21:53:10.445Z,6.40
2024-03-09T21:55:12.174Z,8.98
2024-03-09T21:57:13.769Z,6.63
2024-03-09T21:59:15.353Z,7.05
2024-03-09T22:01:18.285Z,5.95
2024-03-09T22:03:19.835Z,7.80
2024-03-09T22:05:22.195Z,6.75
2024-03-09T22:07:23.849Z,9.00
2024-03-09T22:09:25.418Z,6.82
2024-03-09T22:11:27.156Z,7.20
2024-03-09T22:13:28.832Z,6.07
2024-03-09T22:15:30.388Z,7.05
2024-03-09T22:17:33.564Z,9.05
2024-03-09T22:19:35.281Z,6.57
2024-03-09T22:21:36.877Z,10.98
2024-03-09T22:23:38.564Z,10.10
2024-03-09T22:25:40.152Z,9.45
2024-03-09T22:27:41.824Z,9.15
2024-03-09T22:29:44.923Z,10.90
2024-03-09T22:31:46.523Z,8.35
2024-03-09T22:33:49.450Z,8.15
2024-03-09T22:35:51.263Z,9.23
2024-03-09T22:37:52.985Z,7.00
2024-03-09T22:39:54.682Z,7.65
2024-03-09T22:41:56.311Z,7.38
2024-03-09T22:43:58.180Z,7.43
2024-03-09T22:45:59.744Z,8.77
2024-03-09T22:48:01.293Z,7.95
2024-03-09T22:50:05.274Z,8.05
2024-03-09T22:52:07.732Z,12.25
2024-03-09T22:54:09.311Z,7.63
2024-03-09T22:56:10.933Z,8.38
2024-03-09T22:58:12.519Z,6.50
2024-03-09T23:00:15.818Z,8.50
2024-03-09T23:02:17.699Z,6.95
2024-03-09T23:04:19.364Z,7.00
2024-03-09T23:06:22.281Z,7.57
2024-03-09T23:08:23.922Z,5.80
2024-03-09T23:10:25.787Z,6.72
2024-03-09T23:12:27.694Z,9.80
2024-03-09T23:14:29.397Z,8.38
2024-03-09T23:16:31.549Z,6.35
2024-03-09T23:18:33.413Z,6.70
2024-03-09T23:20:35.248Z,6.30
2024-03-09T23:22:38.410Z,6.35
2024-03-09T23:24:39.999Z,5.80
2024-03-09T23:26:41.624Z,6.75
2024-03-09T23:28:43.201Z,5.95
2024-03-09T23:30:44.817Z,6.15
2024-03-09T23:32:47.124Z,5.28
2024-03-09T23:34:48.840Z,4.88
2024-03-09T23:36:50.629Z,7.18
2024-03-09T23:38:53.608Z,5.60
2024-03-09T23:40:55.466Z,4.72
2024-03-09T23:42:57.063Z,5.40
2024-03-09T23:44:58.690Z,7.40
2024-03-09T23:47:00.238Z,6.05
2024-03-09T23:49:01.920Z,7.22
2024-03-09T23:51:04.020Z,6.13
2024-03-09T23:53:05.691Z,6.22
2024-03-09T23:55:09.296Z,8.38
2024-03-09T23:57:10.891Z,7.22
2024-03-09T23:59:12.532Z,8.20
